Airfield :
LOGIN :

Register | Disclaimer

   EN    FR    IT 

 










Legend :    VFR   Marginal VFR   IFR   Intensive IFR   Very Intensive IFR
Visi :
Ceiling :
>= 8 km
>= 3000ft
5 to 8 km
1000 to 3000 ft
1500m to 5 km
500 to 1000 ft
800 to 1500m
200 to 500 ft
< 800m
< 200 ft
Symbols :   Thunderstorms  Fog  Heavy snow  Heavy precipitations  Wind > 20 kt
SIGMETs :     Misc.  Thunderstorms  Icing  Turbulence  Mountain Waves  Volcanic Ashes






- Airport Elevation : 228 ft
- IATA code : OPO


LPPR - Porto Fr. Sa Carneiro

CURRENT METAR :
  • 280830Z 13006KT CAVOK 28/16 Q1019

EXPIRED METARs :
  • 280800Z 12008KT CAVOK 27/17 Q1019
  • 280730Z 12010KT CAVOK 25/16 Q1019
  • 280700Z 11009KT CAVOK 24/16 Q1018
  • 280630Z 12008KT 080V140 CAVOK 23/17 Q1018
  • 280600Z 12009KT CAVOK 22/16 Q1018

TAF TAF LPPR
Valid from the 28 at 06:00 until the 29 at 06:00 UTC


280500Z 2806/2906 VRB02KT CAVOK
TEMPO 2806/2808 10005KT
BECMG 2808/2810 24008KT
BECMG 2812/2814 34010KT
TEMPO 2814/2818 9999 FEW035TCU
BECMG 2819/2822 VRB02KT



MET'MAP, your aeronautical weather chart ! - Copyright ORBIFLY December 2007 - Disclaimer

ORBIFLY MET'MAP TEAM :

Programming & Development : Alexandra Zaïnal
Concept & original design : Baudouin d'Aumeries
Assistance for programming : Marc-Olivier Méhu
Technical & hardware support : Manuel Goepfert

Contact : metmap@orbifly.com




SOURCES & CREDITS :

   NOAA